Home > Products > Valid Products > MTR

000
SAUS45 KPIH 261052
MTRSNT
METAR KSNT 261051Z AUTO 00000KT 04/02 A3005 RMK AO1 SLP108 T00390022





000
SAUS45 KPIH 260952
MTRSNT
METAR KSNT 260951Z AUTO 00000KT 04/03 A3005 RMK AO1 SLP106 T00390028





000
SAUS45 KPIH 260852
MTRSNT
METAR KSNT 260851Z AUTO 00000KT 02/01 A3004 RMK AO1 SLP113 T00220011
51003





000
SAUS45 KPIH 260852
MTRSNT
METAR KSNT 260851Z AUTO 00000KT 02/01 A3004 RMK AO1 SLP113 T00220011
51003





000
SAUS45 KPIH 260752
MTRSNT
METAR KSNT 260751Z AUTO 00000KT 02/01 A3004 RMK AO1 SLP109 T00220011





000
SAUS45 KPIH 260652
MTRSNT
METAR KSNT 260651Z AUTO 17003KT 04/02 A3004 RMK AO1 SLP108 T00390022
401891006





000
SAUS45 KPIH 260652
MTRSNT
METAR KSNT 260651Z AUTO 17003KT 04/02 A3004 RMK AO1 SLP108 T00390022
401891006





000
SAUS45 KPIH 260552
MTRSNT
METAR KSNT 260551Z AUTO 18004KT 04/03 A3003 RMK AO1 SLP103 60022
T00390028 10167 20039 50006





000
SAUS45 KPIH 260452
MTRSNT
METAR KSNT 260451Z AUTO 15004KT 06/04 A3004 RMK AO1 SLP110 T00610044





000
SAUS45 KPIH 260352
MTRSNT
METAR KSNT 260351Z AUTO 14007KT 07/05 A3003 RMK AO1 SLP119 P0016
T00720050





000
SAUS45 KPIH 260252
MTRSNT
METAR KSNT 260251Z AUTO 17003KT 08/06 A3001 RMK AO1 SLP115 P0002
60006 T00830056 52021





000
SAUS45 KPIH 260152
MTRSNT
METAR KSNT 260151Z AUTO 18007KT 09/04 A2999 RMK AO1 SLP111 P0004
T00890044





000
SAUS45 KPIH 260152
MTRSNT
METAR KSNT 260151Z AUTO 18007KT 09/04 A2999 RMK AO1 SLP111 P0004
T00890044





000
SAUS45 KPIH 260052
MTRSNT
METAR KSNT 260051Z AUTO 34006KT 14/03 A2996 RMK AO1 SLP089 T01390028





000
SAUS45 KPIH 252352
MTRSNT
METAR KSNT 252351Z AUTO 00000KT 16/01 A2994 RMK AO1 SLP077 T01610006
10189 20139 56006





000
SAUS45 KPIH 252252
MTRSNT
METAR KSNT 252251Z AUTO 33006KT 17/01 A2995 RMK AO1 WSHFT 2154
SLP081 T01670011





000
SAUS45 KPIH 252215
MTRSNT
SPECI KSNT 252214Z AUTO 02012G20KT 17/03 A2995 RMK AO1 WSHFT 2154
T01670028





000
SAUS45 KPIH 252152
MTRSNT
METAR KSNT 252151Z AUTO 34009KT 17/M01 A2995 RMK AO1 SLP077
T01721011





000
SAUS45 KPIH 252152
MTRSNT
METAR KSNT 252151Z AUTO 34009KT 17/M01 A2995 RMK AO1 SLP077
T01721011





000
SAUS45 KPIH 252052
MTRSNT
METAR KSNT 252051Z AUTO VRB04KT 15/01 A2996 RMK AO1 SLP086 T01500011
58006





000
SAUS45 KPIH 252052
MTRSNT
METAR KSNT 252051Z AUTO VRB04KT 15/01 A2996 RMK AO1 SLP086 T01500011
58006





000
SAUS45 KPIH 251952
MTRSNT
METAR KSNT 251951Z AUTO VRB05KT 17/01 A2997 RMK AO1 SLP082 T01670011





000
SAUS45 KPIH 251852
MTRSNT
METAR KSNT 251851Z AUTO 14/01 A2998 RMK AO1 SLP085 T01440006





000
SAUS45 KPIH 251752
MTRSNT
METAR KSNT 251751Z AUTO 05004KT 16/02 A2998 RMK AO1 SLP083 T01560017
10161 20000 58012





000
SAUS45 KPIH 251652
MTRSNT
METAR KSNT 251651Z AUTO 34004KT 12/04 A3000 RMK AO1 SLP096 T01170044





000
SAUS45 KPIH 251552
MTRSNT
METAR KSNT 251551Z AUTO 36004KT 06/03 A3002 RMK AO1 SLP109 T00610033





000
SAUS45 KPIH 251452
MTRSNT
METAR KSNT 251451Z AUTO 35003KT 04/03 A3002 RMK AO1 SLP114 T00390028
51004





000
SAUS45 KPIH 251352
MTRSNT
METAR KSNT 251351Z AUTO 00000KT 02/01 A3002 RMK AO1 SLP116 T00220011





000
SAUS45 KPIH 251352
MTRSNT
METAR KSNT 251351Z AUTO 00000KT 02/01 A3002 RMK AO1 SLP116 T00220011





000
SAUS45 KPIH 251252
MTRSNT
METAR KSNT 251251Z AUTO 00000KT 01/M01 A3002 RMK AO1 SLP110
T00061006





000
SAUS45 KPIH 251152
MTRSNT
METAR KSNT 251151Z AUTO 00000KT 00/M02 A3001 RMK AO1 SLP101
T00001017 10050 21006 52001





000
SAUS45 KPIH 251152
MTRSNT
METAR KSNT 251151Z AUTO 00000KT 00/M02 A3001 RMK AO1 SLP101
T00001017 10050 21006 52001





000
SAUS45 KPIH 251052
MTRSNT
METAR KSNT 251051Z AUTO 00000KT 00/M01 A3001 RMK AO1 SLP100
T00001011





000
SAUS45 KPIH 251052
MTRSNT
METAR KSNT 251051Z AUTO 00000KT 00/M01 A3001 RMK AO1 SLP100
T00001011





000
SAUS45 KPIH 250952
MTRSNT
METAR KSNT 250951Z AUTO 17003KT 01/00 A3001 RMK AO1 SLP098 T00110000





000
SAUS45 KPIH 250852
MTRSNT
METAR KSNT 250851Z AUTO 00000KT 02/00 A3001 RMK AO1 SLP097 T00170000
58002





000
SAUS45 KPIH 250752
MTRSNT
METAR KSNT 250751Z AUTO 16003KT 03/01 A3001 RMK AO1 SLP093 T00330011





000
SAUS45 KPIH 250652
MTRSNT
METAR KSNT 250651Z AUTO 00000KT 05/02 A3001 RMK AO1 SLP093 T00500022
401830006





000
SAUS45 KPIH 250552
MTRSNT
METAR KSNT 250551Z AUTO 17003KT 05/02 A3001 RMK AO1 SLP096 T00500022
10178 20044 51007





000
SAUS45 KPIH 250552
MTRSNT
METAR KSNT 250551Z AUTO 17003KT 05/02 A3001 RMK AO1 SLP096 T00500022
10178 20044 51007





000
SAUS45 KPIH 250452
MTRSNT
METAR KSNT 250451Z AUTO 22003KT 07/03 A3001 RMK AO1 SLP096 T00720033





000
SAUS45 KPIH 250352
MTRSNT
METAR KSNT 250351Z AUTO 01003KT 09/03 A3001 RMK AO1 SLP091 T00940033





000
SAUS45 KPIH 250352
MTRSNT
METAR KSNT 250351Z AUTO 01003KT 09/03 A3001 RMK AO1 SLP091 T00940033





000
SAUS45 KPIH 250252
MTRSNT
METAR KSNT 250251Z AUTO 16004KT 10/04 A2999 RMK AO1 SLP094 T01000039
53015





000
SAUS45 KPIH 250252
MTRSNT
METAR KSNT 250251Z AUTO 16004KT 10/04 A2999 RMK AO1 SLP094 T01000039
53015





000
SAUS45 KPIH 250152
MTRSNT
METAR KSNT 250151Z AUTO 26004KT 11/04 A2996 RMK AO1 SLP087 T01110044





000
SAUS45 KPIH 250052
MTRSNT
METAR KSNT 250051Z AUTO 00000KT 15/00 A2994 RMK AO1 SLP075 T01500000





000
SAUS45 KPIH 242352
MTRSNT
METAR KSNT 242351Z AUTO 36006KT 18/01 A2994 RMK AO1 SLP067 T01780011
10183 20139 58008





000
SAUS45 KPIH 242352
MTRSNT
METAR KSNT 242351Z AUTO 36006KT 18/01 A2994 RMK AO1 SLP067 T01780011
10183 20139 58008





000
SAUS45 KPIH 242252
MTRSNT
METAR KSNT 242251Z AUTO 35009KT 17/01 A2995 RMK AO1 SLP070 T01720006





000
SAUS45 KPIH 242152
MTRSNT
METAR KSNT 242151Z AUTO VRB05G14KT 17/02 A2996 RMK AO1 SLP082
T01720017





000
SAUS45 KPIH 242052
MTRSNT
METAR KSNT 242051Z AUTO 01005KT 17/02 A2997 RMK AO1 SLP083 T01720017
58014





000
SAUS45 KPIH 241952
MTRSNT
METAR KSNT 241951Z AUTO VRB05KT 17/02 A2998 RMK AO1 SLP086 T01720022





000
SAUS45 KPIH 241952
MTRSNT
METAR KSNT 241951Z AUTO VRB05KT 17/02 A2998 RMK AO1 SLP086 T01720022





000
SAUS45 KPIH 241852
MTRSNT
METAR KSNT 241851Z AUTO 36005KT 16/02 A3001 RMK AO1 SLP094 T01560017





000
SAUS45 KPIH 241852
MTRSNT
METAR KSNT 241851Z AUTO 36005KT 16/02 A3001 RMK AO1 SLP094 T01560017





000
SAUS45 KPIH 241752
MTRSNT
METAR KSNT 241751Z AUTO VRB05KT 15/02 A3001 RMK AO1 SLP097 T01500022
10150 20022 58009





000
SAUS45 KPIH 241652
MTRSNT
METAR KSNT 241651Z AUTO VRB04KT 12/03 A3003 RMK AO1 SLP104 T01220028





000
SAUS45 KPIH 241552
MTRSNT
METAR KSNT 241551Z AUTO 35006KT 12/04 A3004 RMK AO1 SLP109 T01170044





000
SAUS45 KPIH 241452
MTRSNT
METAR KSNT 241451Z AUTO 35004KT 08/04 A3005 RMK AO1 SLP117 T00780039
58005





000
SAUS45 KPIH 241352
MTRSNT
METAR KSNT 241351Z AUTO 00000KT 06/03 A3006 RMK AO1 SLP120 T00560033





000
SAUS45 KPIH 241352
MTRSNT
METAR KSNT 241351Z AUTO 00000KT 06/03 A3006 RMK AO1 SLP120 T00560033





000
SAUS45 KPIH 241252
MTRSNT
METAR KSNT 241251Z AUTO 00000KT 03/01 A3007 RMK AO1 SLP122 T00280011





000
SAUS45 KPIH 241152
MTRSNT
METAR KSNT 241151Z AUTO 00000KT 03/01 A3007 RMK AO1 SLP123 70002
T00280011 10050 20006 58001





000
SAUS45 KPIH 241052
MTRSNT
METAR KSNT 241051Z AUTO 00000KT 03/02 A3007 RMK AO1 SLP115 T00330017





000
SAUS45 KPIH 241052
MTRSNT
METAR KSNT 241051Z AUTO 00000KT 03/02 A3007 RMK AO1 SLP115 T00330017





000
SAUS45 KPIH 240952
MTRSNT
METAR KSNT 240951Z AUTO 16003KT 01/M01 A3008 RMK AO1 SLP122
T00111006





000
SAUS45 KPIH 240852
MTRSNT
METAR KSNT 240851Z AUTO 00000KT 02/01 A3007 RMK AO1 SLP117 T00170006
51003





000
SAUS45 KPIH 240752
MTRSNT
METAR KSNT 240751Z AUTO 00000KT 03/01 A3007 RMK AO1 SLP120 T00280011





000
SAUS45 KPIH 240652
MTRSNT
METAR KSNT 240651Z AUTO 00000KT 04/02 A3007 RMK AO1 SLP122 T00390017
401890033





000
SAUS45 KPIH 240652
MTRSNT
METAR KSNT 240651Z AUTO 00000KT 04/02 A3007 RMK AO1 SLP122 T00390017
401890033





000
SAUS45 KPIH 240552
MTRSNT
METAR KSNT 240551Z AUTO 00000KT 04/02 A3006 RMK AO1 SLP116 60002
T00440022 10156 20044 50009





000
SAUS45 KPIH 240452
MTRSNT
METAR KSNT 240451Z AUTO 00000KT 06/03 A3006 RMK AO1 SLP125 T00610033





000
SAUS45 KPIH 240352
MTRSNT
METAR KSNT 240351Z AUTO 21005KT 07/03 A3005 RMK AO1 SLP125 T00670033





000
SAUS45 KPIH 240252
MTRSNT
METAR KSNT 240251Z AUTO 21003KT 09/05 A3003 RMK AO1 SLP116 P0002
60002 T00890050 53008





000
SAUS45 KPIH 240152
MTRSNT
METAR KSNT 240151Z AUTO 01013G25KT 12/02 A3003 RMK AO1 SLP110
T01170022





000
SAUS45 KPIH 240152
MTRSNT
METAR KSNT 240151Z AUTO 01013G25KT 12/02 A3003 RMK AO1 SLP110
T01170022





000
SAUS45 KPIH 240052
MTRSNT
METAR KSNT 240051Z AUTO 18005KT 14/02 A2999 RMK AO1 SLP087 T01440022





000
SAUS45 KPIH 232352
MTRSNT
METAR KSNT 232351Z AUTO 04008G17KT 010V080 13/01 A3000 RMK AO1 WSHFT
2320 SLP095 T01330011 10189 20128 53006





000
SAUS45 KPIH 232352
MTRSNT
METAR KSNT 232351Z AUTO 04008G17KT 010V080 13/01 A3000 RMK AO1 WSHFT
2320 SLP095 T01330011 10189 20128 53006





000
SAUS45 KPIH 232341
MTRSNT
SPECI KSNT 232340Z AUTO 01010G19KT 14/02 A3000 RMK AO1 WSHFT 2320
T01390017





000
SAUS45 KPIH 232341
MTRSNT
SPECI KSNT 232340Z AUTO 01010G19KT 14/02 A3000 RMK AO1 WSHFT 2320
T01390017





000
SAUS45 KPIH 232252
MTRSNT
METAR KSNT 232251Z AUTO 10009KT 050V160 17/01 A2997 RMK AO1 SLP077
T01720006





000
SAUS45 KPIH 232152
MTRSNT
METAR KSNT 232151Z AUTO 34009G16KT 17/02 A2997 RMK AO1 SLP076
T01720017





000
SAUS45 KPIH 232052
MTRSNT
METAR KSNT 232051Z AUTO 29007KT 18/03 A2998 RMK AO1 SLP076 T01780028
58006





000
SAUS45 KPIH 231952
MTRSNT
METAR KSNT 231951Z AUTO 16/02 A2998 RMK AO1 SLP085 T01610022





000
SAUS45 KPIH 231852
MTRSNT
METAR KSNT 231851Z AUTO VRB04KT 13/03 A3001 RMK AO1 SLP100 T01330028





000
SAUS45 KPIH 231852
MTRSNT
METAR KSNT 231851Z AUTO VRB04KT 13/03 A3001 RMK AO1 SLP100 T01330028





000
SAUS45 KPIH 231752
MTRSNT
METAR KSNT 231751Z AUTO 33006KT 14/05 A3000 RMK AO1 SLP092 T01440050
10144 20044 58006





000
SAUS45 KPIH 231652
MTRSNT
METAR KSNT 231651Z AUTO 00000KT 09/06 A3001 RMK AO1 SLP105 T00890061





000
SAUS45 KPIH 231552
MTRSNT
METAR KSNT 231551Z AUTO VRB03KT 07/05 A3002 RMK AO1 SLP113 T00670050





000
SAUS45 KPIH 231452
MTRSNT
METAR KSNT 231451Z AUTO 33003KT 06/04 A3002 RMK AO1 SLP113 T00560044
51003





000
SAUS45 KPIH 231452
MTRSNT
METAR KSNT 231451Z AUTO 33003KT 06/04 A3002 RMK AO1 SLP113 T00560044
51003





000
SAUS45 KPIH 231352
MTRSNT
METAR KSNT 231351Z AUTO 00000KT 04/03 A3002 RMK AO1 SLP105 T00440033





000
SAUS45 KPIH 231252
MTRSNT
METAR KSNT 231251Z AUTO 36004KT 05/04 A3002 RMK AO1 SLP106 T00500039





000
SAUS45 KPIH 231252
MTRSNT
METAR KSNT 231251Z AUTO 36004KT 05/04 A3002 RMK AO1 SLP106 T00500039





    US Dept of Commerce
    National Oceanic and Atmospheric Administration
    National Weather Service
    1325 East West Highway
    Silver Spring, MD 20910
    Page Author: NWS Internet Services Team
Disclaimer
Information Quality
Credits
Glossary
Privacy Policy
Freedom of Information Act (FOIA)
About Us
Career Opportunities